Time;durP1;ratioP1;P1;durP2;ratioP2;P2;SDS_P1;SDS_P2;PMS_P1;PMS_P2;Temp;Humidity;BMP_temperature;BMP_pressure;BME280_temperature;BME280_humidity;BME280_pressure;Samples;Min_cycle;Max_cycle;Signal;HPM_P1;HPM_P2
2022/05/27 00:02:39;;;;;;;;;;;15.30;99.90;;;;;;10329766;28;84345;-49
2022/05/27 00:07:40;;;;;;;;;;;15.20;99.90;;;;;;10337444;28;83926;-49
2022/05/27 00:12:40;;;;;;;;;;;15.20;99.90;;;;;;10370491;28;83971;-49
2022/05/27 00:17:41;;;;;;;;;;;15.20;99.90;;;;;;10369991;28;84167;-49
2022/05/27 00:22:41;;;;;;;;;;;15.10;99.90;;;;;;10370492;28;84136;-52
2022/05/27 00:27:42;;;;;;;;;;;15.10;99.90;;;;;;10338868;28;83408;-50
2022/05/27 00:32:42;;;;;;;;;;;15.00;99.90;;;;;;10329230;28;83785;-48
2022/05/27 00:37:43;;;;;;;;;;;15.00;99.90;;;;;;10328919;28;83772;-49
2022/05/27 00:42:45;;;;;;;;;;;14.90;99.90;;;;;;10328501;28;84318;-50
2022/05/27 00:47:49;;;;;;;;;;;14.90;99.90;;;;;;10328596;28;83593;-49
2022/05/27 00:52:49;;;;;;;;;;;14.80;99.90;;;;;;10327686;28;84164;-50
2022/05/27 00:57:57;;;;;;;;;;;14.80;99.90;;;;;;10331452;28;83761;-52
2022/05/27 01:02:58;;;;;;;;;;;14.70;99.90;;;;;;10369276;28;84132;-51
2022/05/27 01:08:01;;;;;;;;;;;14.60;99.90;;;;;;10342867;28;85442;-48
2022/05/27 01:13:27;;;;;;;;;;;14.70;99.90;;;;;;10368925;28;84113;-50
2022/05/27 01:23:59;;;;;;;;;;;14.50;99.90;;;;;;10368781;28;84081;-50
2022/05/27 01:29:18;;;;;;;;;;;14.50;99.90;;;;;;10342056;28;85380;-50
2022/05/27 01:34:37;;;;;;;;;;;14.50;99.90;;;;;;10346244;28;83812;-51
2022/05/27 01:39:42;;;;;;;;;;;14.60;99.90;;;;;;10362303;28;83426;-48
2022/05/27 01:44:46;;;;;;;;;;;14.60;99.90;;;;;;10378322;28;85209;-50
2022/05/27 01:49:48;;;;;;;;;;;14.60;99.90;;;;;;10367429;28;83711;-47
2022/05/27 01:54:56;;;;;;;;;;;14.60;99.90;;;;;;10370337;28;83789;-48
2022/05/27 02:00:09;;;;;;;;;;;14.60;99.90;;;;;;10373747;28;84148;-48
2022/05/27 02:05:37;;;;;;;;;;;14.50;99.90;;;;;;10374964;28;84011;-50
2022/05/27 02:10:37;;;;;;;;;;;14.50;99.90;;;;;;10368862;28;83783;-47
2022/05/27 02:15:43;;;;;;;;;;;14.40;99.90;;;;;;10364312;28;84236;-47
2022/05/27 02:20:49;;;;;;;;;;;14.50;99.90;;;;;;10374214;28;83852;-47
2022/05/27 02:25:51;;;;;;;;;;;14.50;99.90;;;;;;10374163;28;83785;-50
2022/05/27 02:30:54;;;;;;;;;;;14.50;99.90;;;;;;10360209;28;84001;-50
2022/05/27 02:35:57;;;;;;;;;;;14.50;99.90;;;;;;10332935;28;84023;-48
2022/05/27 02:41:00;;;;;;;;;;;14.50;99.90;;;;;;10372080;22;85348;-50
2022/05/27 02:46:07;;;;;;;;;;;14.50;99.90;;;;;;10371122;28;83905;-47
2022/05/27 02:51:19;;;;;;;;;;;14.50;99.90;;;;;;10347965;28;84134;-46
2022/05/27 02:56:24;;;;;;;;;;;14.40;99.90;;;;;;10330203;28;84449;-46
2022/05/27 03:01:24;;;;;;;;;;;14.30;99.90;;;;;;10328928;28;84124;-46
2022/05/27 03:06:44;;;;;;;;;;;14.30;99.90;;;;;;10329455;28;86497;-49
2022/05/27 03:11:50;;;;;;;;;;;14.40;99.90;;;;;;10323463;28;83846;-45
2022/05/27 03:17:06;;;;;;;;;;;14.40;99.90;;;;;;10324175;28;84249;-47
2022/05/27 03:22:06;;;;;;;;;;;14.40;99.90;;;;;;10316211;28;84022;-49
2022/05/27 03:27:17;;;;;;;;;;;14.40;99.90;;;;;;10328884;28;84235;-45
2022/05/27 03:32:36;;;;;;;;;;;14.40;99.90;;;;;;10305760;28;84281;-49
2022/05/27 03:38:03;;;;;;;;;;;14.40;99.90;;;;;;10327761;28;83814;-46
2022/05/27 03:43:04;;;;;;;;;;;14.30;99.90;;;;;;10303320;28;85215;-52
2022/05/27 03:48:04;;;;;;;;;;;14.40;99.90;;;;;;10328531;28;83282;-45
2022/05/27 03:53:05;;;;;;;;;;;14.40;99.90;;;;;;10326785;28;85311;-44
2022/05/27 03:58:05;;;;;;;;;;;14.40;99.90;;;;;;10289869;28;85139;-44
2022/05/27 04:03:06;;;;;;;;;;;14.40;99.90;;;;;;10326845;28;86710;-42
2022/05/27 04:08:06;;;;;;;;;;;14.40;99.90;;;;;;10327180;28;83937;-48
2022/05/27 04:13:07;;;;;;;;;;;14.40;99.90;;;;;;10326984;28;83875;-44
2022/05/27 04:18:08;;;;;;;;;;;14.40;99.90;;;;;;10309007;28;84143;-43
2022/05/27 04:23:08;;;;;;;;;;;14.40;99.90;;;;;;10326986;28;83961;-44
2022/05/27 04:28:09;;;;;;;;;;;14.30;99.90;;;;;;10326898;28;83603;-40
2022/05/27 04:33:09;;;;;;;;;;;14.30;99.90;;;;;;10327181;28;83627;-46
2022/05/27 04:38:10;;;;;;;;;;;14.40;99.90;;;;;;10323623;28;84105;-48
2022/05/27 04:43:10;;;;;;;;;;;14.40;99.90;;;;;;10326526;28;84110;-47
2022/05/27 04:48:11;;;;;;;;;;;14.40;99.90;;;;;;10328371;28;84218;-49
2022/05/27 04:53:12;;;;;;;;;;;14.60;99.90;;;;;;10325026;28;83891;-46
2022/05/27 04:58:13;;;;;;;;;;;14.60;99.90;;;;;;10326764;28;83726;-47
2022/05/27 05:03:14;;;;;;;;;;;14.60;99.90;;;;;;10308256;28;84072;-46
2022/05/27 05:08:34;;;;;;;;;;;14.60;99.90;;;;;;10327117;28;83714;-46
2022/05/27 05:13:34;;;;;;;;;;;14.70;99.90;;;;;;10326381;28;84072;-48
2022/05/27 05:18:35;;;;;;;;;;;14.80;99.90;;;;;;10326815;28;83892;-47
2022/05/27 05:23:35;;;;;;;;;;;14.70;99.90;;;;;;10326416;28;83718;-44
2022/05/27 05:28:36;;;;;;;;;;;14.80;99.90;;;;;;10326489;28;84111;-45
2022/05/27 05:33:37;;;;;;;;;;;14.90;99.90;;;;;;10328468;28;84002;-44
2022/05/27 05:38:38;;;;;;;;;;;14.90;99.90;;;;;;10328897;28;84275;-46
2022/05/27 05:43:38;;;;;;;;;;;14.90;99.90;;;;;;10332554;28;83948;-48
2022/05/27 05:48:39;;;;;;;;;;;15.00;99.90;;;;;;10332020;28;84133;-50
2022/05/27 05:53:39;;;;;;;;;;;15.10;99.90;;;;;;10340684;28;83748;-48
2022/05/27 05:58:40;;;;;;;;;;;15.20;99.90;;;;;;10327169;28;83557;-51
2022/05/27 06:03:40;;;;;;;;;;;15.20;99.90;;;;;;10304907;28;83377;-49
2022/05/27 06:08:41;;;;;;;;;;;15.30;99.90;;;;;;10319757;28;84124;-44
2022/05/27 06:13:41;;;;;;;;;;;15.40;87.20;;;;;;10326923;28;83847;-53
2022/05/27 06:18:42;;;;;;;;;;;15.50;50.30;;;;;;10326414;28;84028;-59
2022/05/27 06:23:44;;;;;;;;;;;15.40;99.90;;;;;;10327089;28;84055;-55
2022/05/27 06:39:23;;;;;;;;;;;16.10;1.00;;;;;;10324465;28;84564;-59
2022/05/27 06:44:23;;;;;;;;;;;16.10;1.00;;;;;;10326089;28;83215;-56
2022/05/27 06:49:24;;;;;;;;;;;16.30;1.00;;;;;;10322758;28;84153;-53
2022/05/27 06:54:25;;;;;;;;;;;16.50;1.00;;;;;;10322574;28;84050;-53
2022/05/27 06:59:25;;;;;;;;;;;16.50;1.00;;;;;;10287800;28;84247;-62
2022/05/27 07:04:26;;;;;;;;;;;16.40;1.00;;;;;;10321615;28;84273;-59
2022/05/27 07:09:26;;;;;;;;;;;16.30;1.00;;;;;;10323167;28;83740;-53
2022/05/27 07:14:27;;;;;;;;;;;16.20;1.00;;;;;;10340232;28;84065;-44
2022/05/27 07:19:28;;;;;;;;;;;16.10;1.00;;;;;;10325869;28;83787;-47
2022/05/27 07:24:28;;;;;;;;;;;16.40;1.00;;;;;;10321258;28;84993;-52
2022/05/27 07:29:29;;;;;;;;;;;16.80;1.00;;;;;;10323165;28;84158;-47
2022/05/27 07:34:30;;;;;;;;;;;16.90;1.00;;;;;;10325392;28;84075;-45
2022/05/27 07:39:31;;;;;;;;;;;17.00;99.90;;;;;;10314286;28;84376;-44
2022/05/27 07:44:31;;;;;;;;;;;17.30;99.90;;;;;;10308991;28;85592;-49
2022/05/27 07:49:32;;;;;;;;;;;17.00;99.90;;;;;;10326269;28;83763;-49
2022/05/27 07:54:32;;;;;;;;;;;16.90;99.90;;;;;;10321329;28;84259;-50
2022/05/27 07:59:33;;;;;;;;;;;16.90;99.90;;;;;;10307228;28;85682;-45
2022/05/27 08:04:33;;;;;;;;;;;17.00;99.90;;;;;;10327233;28;83771;-45
2022/05/27 08:09:34;;;;;;;;;;;17.20;99.90;;;;;;10323400;28;83704;-46
2022/05/27 08:14:34;;;;;;;;;;;17.20;51.00;;;;;;10323198;28;84211;-46
2022/05/27 08:19:35;;;;;;;;;;;17.70;38.60;;;;;;10325551;28;83748;-51
2022/05/27 08:24:36;;;;;;;;;;;18.30;1.00;;;;;;10328168;28;83820;-48
2022/05/27 08:29:37;;;;;;;;;;;18.30;1.00;;;;;;10326528;28;83707;-47
2022/05/27 08:39:57;;;;;;;;;;;18.10;1.00;;;;;;10348954;22;83971;-53
2022/05/27 08:45:16;;;;;;;;;;;19.10;1.00;;;;;;10342581;28;84564;-52
2022/05/27 08:50:16;;;;;;;;;;;19.20;99.90;;;;;;10329947;28;84147;-50
2022/05/27 09:00:44;;;;;;;;;;;18.80;1.00;;;;;;10369157;28;84653;-49
2022/05/27 09:05:56;;;;;;;;;;;18.40;1.00;;;;;;10378807;28;89132;-58
2022/05/27 09:11:07;;;;;;;;;;;18.70;1.00;;;;;;10355809;28;83460;-47
2022/05/27 09:16:16;;;;;;;;;;;19.20;99.90;;;;;;10342608;28;105267;-48
2022/05/27 09:21:17;;;;;;;;;;;19.20;1.00;;;;;;10373107;28;84220;-49
2022/05/27 09:26:19;;;;;;;;;;;19.20;1.00;;;;;;10366706;28;85055;-54
2022/05/27 09:31:38;;;;;;;;;;;18.70;1.00;;;;;;10363061;28;84554;-51
2022/05/27 09:36:41;;;;;;;;;;;18.90;1.00;;;;;;10387718;28;83525;-50
2022/05/27 09:41:52;;;;;;;;;;;19.40;1.00;;;;;;10354329;28;85349;-51
2022/05/27 09:46:52;;;;;;;;;;;20.30;1.00;;;;;;10377495;28;83505;-52
2022/05/27 09:51:53;;;;;;;;;;;20.90;99.90;;;;;;10378525;28;83881;-53
2022/05/27 09:57:13;;;;;;;;;;;21.90;1.00;;;;;;10361936;28;84071;-52
2022/05/27 10:02:22;;;;;;;;;;;22.00;1.00;;;;;;10369989;28;85632;-57
2022/05/27 10:07:33;;;;;;;;;;;21.10;99.90;;;;;;10368993;28;84176;-57
2022/05/27 10:12:34;;;;;;;;;;;20.40;99.90;;;;;;10375159;28;83354;-51
2022/05/27 10:17:37;;;;;;;;;;;20.80;99.90;;;;;;10387836;28;83561;-50
2022/05/27 10:22:38;;;;;;;;;;;21.80;99.90;;;;;;10374269;28;83823;-50
2022/05/27 10:27:40;;;;;;;;;;;21.40;99.90;;;;;;10376620;28;84273;-51
2022/05/27 10:32:42;;;;;;;;;;;20.40;99.90;;;;;;10359990;28;83394;-51
2022/05/27 10:37:46;;;;;;;;;;;21.30;99.90;;;;;;10378548;28;83456;-52
2022/05/27 10:43:04;;;;;;;;;;;22.20;55.70;;;;;;10381131;28;83849;-55
2022/05/27 10:48:12;;;;;;;;;;;22.80;1.00;;;;;;10377410;28;84171;-52
2022/05/27 10:53:18;;;;;;;;;;;22.40;1.00;;;;;;10380837;28;83257;-53
2022/05/27 11:04:02;;;;;;;;;;;22.40;1.00;;;;;;10376799;28;83458;-52
2022/05/27 11:09:12;;;;;;;;;;;22.40;1.00;;;;;;10381674;28;83321;-51
2022/05/27 11:19:46;;;;;;;;;;;22.10;1.00;;;;;;10379911;28;83722;-52
2022/05/27 11:25:02;;;;;;;;;;;21.40;99.90;;;;;;10409919;28;83293;-53
2022/05/27 11:30:18;;;;;;;;;;;21.50;99.90;;;;;;10370325;28;84047;-52
2022/05/27 11:35:35;;;;;;;;;;;22.00;99.90;;;;;;10369436;28;83489;-48
2022/05/27 11:40:36;;;;;;;;;;;20.90;99.90;;;;;;10372261;28;84140;-51
2022/05/27 11:45:39;;;;;;;;;;;21.30;1.00;;;;;;10373130;28;83409;-48
2022/05/27 11:50:48;;;;;;;;;;;22.60;99.90;;;;;;10393309;28;83926;-52
2022/05/27 11:56:08;;;;;;;;;;;23.70;99.90;;;;;;10375382;28;84292;-51
2022/05/27 12:01:20;;;;;;;;;;;23.70;99.90;;;;;;10392891;28;84185;-53
2022/05/27 12:06:29;;;;;;;;;;;23.80;89.90;;;;;;10393055;28;84201;-54
2022/05/27 12:11:43;;;;;;;;;;;24.10;99.90;;;;;;10390070;28;84063;-54
2022/05/27 12:16:48;;;;;;;;;;;23.20;15.00;;;;;;10412864;28;83330;-55
2022/05/27 12:21:58;;;;;;;;;;;21.50;1.00;;;;;;10357537;28;84510;-53
2022/05/27 12:26:59;;;;;;;;;;;21.60;35.50;;;;;;10385977;28;83321;-53
2022/05/27 12:31:59;;;;;;;;;;;21.40;81.50;;;;;;10382196;28;84072;-50
2022/05/27 12:37:13;;;;;;;;;;;22.30;1.00;;;;;;10370314;28;83834;-52
2022/05/27 12:42:28;;;;;;;;;;;22.60;1.00;;;;;;10368956;28;84485;-55
2022/05/27 12:47:30;;;;;;;;;;;23.30;1.00;;;;;;10369159;28;83475;-49
2022/05/27 12:52:30;;;;;;;;;;;23.90;1.00;;;;;;10370345;28;84388;-50
2022/05/27 13:03:02;;;;;;;;;;;22.60;1.00;;;;;;10366989;28;83221;-50
2022/05/27 13:08:17;;;;;;;;;;;22.80;1.00;;;;;;10368606;28;84419;-48
2022/05/27 13:13:22;;;;;;;;;;;23.10;1.00;;;;;;10368673;28;83627;-58
2022/05/27 13:18:34;;;;;;;;;;;21.90;1.00;;;;;;10331627;28;84873;-56
2022/05/27 13:23:48;;;;;;;;;;;20.70;1.00;;;;;;10369178;28;84047;-55
2022/05/27 13:28:53;;;;;;;;;;;21.10;1.00;;;;;;10367818;28;83271;-54
2022/05/27 13:34:01;;;;;;;;;;;20.90;1.00;;;;;;10354105;28;86905;-52
2022/05/27 13:39:06;;;;;;;;;;;21.00;1.00;;;;;;10367083;28;83450;-52
2022/05/27 13:44:09;;;;;;;;;;;21.90;1.00;;;;;;10371715;28;83303;-53
2022/05/27 13:49:30;;;;;;;;;;;22.00;1.00;;;;;;10372474;28;84261;-54
2022/05/27 13:54:32;;;;;;;;;;;20.80;1.00;;;;;;10378874;28;83218;-52
2022/05/27 13:59:38;;;;;;;;;;;20.80;1.00;;;;;;10358191;28;84344;-49
2022/05/27 14:04:51;;;;;;;;;;;21.10;1.00;;;;;;10374387;28;83762;-51
2022/05/27 14:09:56;;;;;;;;;;;21.00;1.00;;;;;;10374587;28;83178;-50
2022/05/27 14:15:00;;;;;;;;;;;20.50;1.00;;;;;;10374914;28;83612;-53
2022/05/27 14:20:02;;;;;;;;;;;19.90;1.00;;;;;;10374493;28;83637;-49
2022/05/27 14:25:04;;;;;;;;;;;19.80;1.00;;;;;;10374840;28;83705;-48
2022/05/27 14:30:05;;;;;;;;;;;19.70;1.00;;;;;;10372399;28;84008;-50
2022/05/27 14:35:06;;;;;;;;;;;19.70;1.00;;;;;;10374290;28;83790;-52
2022/05/27 14:40:10;;;;;;;;;;;19.50;1.00;;;;;;10395623;22;83370;-46
2022/05/27 14:45:49;;;;;;;;;;;19.30;1.00;;;;;;10353740;28;84167;-52
2022/05/27 14:50:49;;;;;;;;;;;19.00;1.00;;;;;;10245145;28;84156;-46
2022/05/27 14:55:55;;;;;;;;;;;19.20;1.00;;;;;;10311045;28;83771;-45
2022/05/27 15:00:56;;;;;;;;;;;19.30;1.00;;;;;;10307749;28;84368;-43
2022/05/27 15:06:12;;;;;;;;;;;18.80;1.00;;;;;;10290894;28;84266;-46
2022/05/27 15:11:21;;;;;;;;;;;18.60;1.00;;;;;;10271686;28;86216;-45
2022/05/27 15:16:22;;;;;;;;;;;18.30;1.00;;;;;;10314791;28;84040;-50
2022/05/27 15:21:28;;;;;;;;;;;18.40;1.00;;;;;;10288901;28;84228;-49
2022/05/27 15:37:09;;;;;;;;;;;17.80;1.00;;;;;;10292287;28;83702;-49
2022/05/27 15:42:11;;;;;;;;;;;17.70;1.00;;;;;;10289072;28;84210;-44
2022/05/27 15:47:12;;;;;;;;;;;17.80;1.00;;;;;;10271888;28;83664;-50
2022/05/27 15:52:13;;;;;;;;;;;17.70;1.00;;;;;;10300590;28;83734;-52
2022/05/27 15:57:14;;;;;;;;;;;17.70;1.00;;;;;;10329453;28;83385;-46
2022/05/27 16:02:14;;;;;;;;;;;17.70;1.00;;;;;;10326753;28;84156;-50
2022/05/27 16:07:16;;;;;;;;;;;17.80;1.00;;;;;;10320252;28;83803;-49
2022/05/27 16:12:17;;;;;;;;;;;17.80;1.00;;;;;;10322496;28;85024;-51
2022/05/27 16:22:38;;;;;;;;;;;17.30;1.00;;;;;;10321808;28;84121;-44
2022/05/27 16:27:39;;;;;;;;;;;17.50;1.00;;;;;;10306107;28;84076;-46
2022/05/27 16:32:40;;;;;;;;;;;17.30;1.00;;;;;;10268635;28;83913;-51
2022/05/27 16:37:40;;;;;;;;;;;17.50;1.00;;;;;;10308594;28;83474;-47
2022/05/27 16:42:41;;;;;;;;;;;17.10;1.00;;;;;;10321044;28;84170;-49
2022/05/27 16:47:43;;;;;;;;;;;17.00;1.00;;;;;;10330060;28;84578;-47
2022/05/27 16:52:43;;;;;;;;;;;16.80;1.00;;;;;;10332238;28;84135;-47
2022/05/27 16:57:45;;;;;;;;;;;16.50;99.90;;;;;;10350623;28;84405;-50
2022/05/27 17:02:46;;;;;;;;;;;16.40;99.90;;;;;;10350775;28;84537;-51
2022/05/27 17:07:47;;;;;;;;;;;16.20;1.00;;;;;;10365202;28;83569;-48
2022/05/27 17:12:48;;;;;;;;;;;16.30;1.00;;;;;;10339432;28;84213;-42
2022/05/27 17:17:48;;;;;;;;;;;16.20;1.00;;;;;;10322018;28;83974;-43
2022/05/27 17:22:49;;;;;;;;;;;16.20;1.00;;;;;;10269967;28;85076;-45
2022/05/27 17:27:50;;;;;;;;;;;16.10;1.00;;;;;;10357139;28;83832;-45
2022/05/27 17:32:50;;;;;;;;;;;15.90;1.00;;;;;;10366969;28;84105;-41
2022/05/27 17:37:51;;;;;;;;;;;15.90;1.00;;;;;;10288528;28;83702;-46
2022/05/27 17:42:52;;;;;;;;;;;15.70;1.00;;;;;;10305916;28;84125;-48
2022/05/27 17:53:12;;;;;;;;;;;15.60;99.90;;;;;;10344934;28;84218;-46
2022/05/27 17:58:12;;;;;;;;;;;15.50;1.00;;;;;;10325785;28;83936;-50
2022/05/27 18:03:15;;;;;;;;;;;15.40;1.00;;;;;;10325133;28;83811;-47
2022/05/27 18:08:17;;;;;;;;;;;15.30;1.00;;;;;;10324714;28;84195;-42
2022/05/27 18:13:18;;;;;;;;;;;15.20;1.00;;;;;;10343839;28;83727;-48
2022/05/27 18:18:19;;;;;;;;;;;15.20;1.00;;;;;;10324349;28;83862;-46
2022/05/27 18:23:19;;;;;;;;;;;15.10;7.40;;;;;;10306662;28;86221;-48
2022/05/27 18:28:20;;;;;;;;;;;15.00;1.00;;;;;;10329065;28;83887;-50
2022/05/27 18:33:20;;;;;;;;;;;14.90;1.00;;;;;;10350318;28;84194;-48
2022/05/27 18:38:21;;;;;;;;;;;14.80;99.90;;;;;;10347490;28;84064;-48
2022/05/27 18:43:21;;;;;;;;;;;14.80;97.10;;;;;;10368139;28;84072;-46
2022/05/27 18:48:22;;;;;;;;;;;14.70;99.90;;;;;;10334397;28;84092;-48
2022/05/27 18:53:22;;;;;;;;;;;14.70;1.00;;;;;;10333651;28;83767;-46
2022/05/27 18:58:23;;;;;;;;;;;14.60;1.00;;;;;;10334508;28;85214;-54
2022/05/27 19:03:23;;;;;;;;;;;14.60;99.90;;;;;;10338446;28;84251;-52
2022/05/27 19:08:25;;;;;;;;;;;14.50;99.90;;;;;;10335345;28;83998;-50
2022/05/27 19:13:26;;;;;;;;;;;14.30;1.00;;;;;;10336967;28;84292;-48
2022/05/27 19:23:48;;;;;;;;;;;14.20;60.60;;;;;;10319483;28;86115;-46
2022/05/27 19:28:49;;;;;;;;;;;14.20;99.90;;;;;;10334993;28;83804;-45
2022/05/27 19:33:50;;;;;;;;;;;14.00;99.90;;;;;;10338085;28;84030;-48
2022/05/27 19:38:51;;;;;;;;;;;13.90;1.00;;;;;;10335667;28;84221;-49
2022/05/27 19:43:51;;;;;;;;;;;13.90;1.00;;;;;;10332667;28;85519;-47
2022/05/27 19:48:52;;;;;;;;;;;14.00;1.00;;;;;;10345945;28;83606;-48
2022/05/27 19:53:54;;;;;;;;;;;13.90;1.00;;;;;;10345589;28;84271;-49
2022/05/27 20:09:34;;;;;;;;;;;13.90;1.00;;;;;;10329509;28;83655;-49
2022/05/27 20:14:35;;;;;;;;;;;14.00;1.00;;;;;;10329472;28;83785;-46
2022/05/27 20:19:35;;;;;;;;;;;14.00;1.00;;;;;;10332435;28;84119;-52
2022/05/27 20:24:37;;;;;;;;;;;13.90;1.00;;;;;;10337894;28;83218;-48
2022/05/27 20:29:37;;;;;;;;;;;13.80;1.00;;;;;;10340004;28;83751;-48
2022/05/27 20:34:38;;;;;;;;;;;13.70;1.00;;;;;;10339773;28;83811;-52
2022/05/27 20:39:41;;;;;;;;;;;13.60;25.40;;;;;;10333139;28;83553;-48
2022/05/27 20:44:43;;;;;;;;;;;13.50;52.10;;;;;;10386461;22;83968;-49
2022/05/27 20:49:44;;;;;;;;;;;13.40;89.30;;;;;;10350469;28;86253;-49
2022/05/27 20:54:45;;;;;;;;;;;13.30;99.90;;;;;;10328258;28;83724;-53
2022/05/27 20:59:46;;;;;;;;;;;13.30;99.90;;;;;;10326388;28;84079;-50
2022/05/27 21:04:48;;;;;;;;;;;13.40;99.90;;;;;;10328054;28;83721;-49
2022/05/27 21:09:48;;;;;;;;;;;13.40;99.90;;;;;;10327355;28;84200;-52
2022/05/27 21:14:49;;;;;;;;;;;13.30;99.90;;;;;;10335035;28;83288;-49
2022/05/27 21:19:49;;;;;;;;;;;13.20;99.90;;;;;;10325174;28;85266;-52
2022/05/27 21:24:50;;;;;;;;;;;13.20;99.90;;;;;;10327565;28;83529;-50
2022/05/27 21:29:50;;;;;;;;;;;13.00;99.90;;;;;;10325929;28;83991;-50
2022/05/27 21:34:51;;;;;;;;;;;12.90;99.90;;;;;;10325701;28;83833;-52
2022/05/27 21:39:52;;;;;;;;;;;12.80;99.90;;;;;;10323350;28;83753;-51
2022/05/27 21:44:52;;;;;;;;;;;12.80;1.00;;;;;;10310774;28;84128;-54
2022/05/27 21:49:53;;;;;;;;;;;12.80;1.00;;;;;;10309205;28;83218;-54
2022/05/27 21:54:53;;;;;;;;;;;12.70;1.00;;;;;;10325343;28;83213;-50
2022/05/27 21:59:54;;;;;;;;;;;12.60;1.00;;;;;;10307690;28;85157;-51
2022/05/27 22:04:55;;;;;;;;;;;12.60;1.00;;;;;;10306546;28;85077;-54
2022/05/27 22:15:14;;;;;;;;;;;12.60;1.00;;;;;;10332514;28;83246;-50
2022/05/27 22:20:16;;;;;;;;;;;12.50;1.00;;;;;;10333350;28;84323;-49
2022/05/27 22:25:18;;;;;;;;;;;12.40;1.00;;;;;;10315798;28;83815;-52
2022/05/27 22:30:20;;;;;;;;;;;12.30;1.00;;;;;;10291957;28;83431;-50
2022/05/27 22:35:21;;;;;;;;;;;12.30;1.00;;;;;;10292492;28;84238;-50
2022/05/27 22:40:22;;;;;;;;;;;12.20;1.00;;;;;;10290663;28;83835;-49
2022/05/27 22:45:23;;;;;;;;;;;12.20;1.00;;;;;;10292802;28;83815;-49
2022/05/27 22:50:23;;;;;;;;;;;12.10;1.00;;;;;;10302516;28;84097;-53
2022/05/27 22:55:24;;;;;;;;;;;12.00;1.00;;;;;;10331300;28;84161;-51
2022/05/27 23:00:25;;;;;;;;;;;11.90;1.00;;;;;;10330018;28;83410;-51
2022/05/27 23:05:25;;;;;;;;;;;11.90;1.00;;;;;;10331798;28;84123;-49
2022/05/27 23:10:26;;;;;;;;;;;11.90;1.00;;;;;;10331212;28;83759;-50
2022/05/27 23:20:47;;;;;;;;;;;11.80;1.00;;;;;;10262694;28;85023;-49
2022/05/27 23:25:48;;;;;;;;;;;11.70;1.00;;;;;;10289720;28;83963;-49
2022/05/27 23:30:50;;;;;;;;;;;11.70;1.00;;;;;;10289831;28;84509;-52
2022/05/27 23:35:52;;;;;;;;;;;11.60;1.00;;;;;;10292078;28;83687;-51
2022/05/27 23:40:52;;;;;;;;;;;11.60;1.00;;;;;;10290336;28;84154;-53
2022/05/27 23:45:54;;;;;;;;;;;11.50;1.00;;;;;;10272355;28;85179;-50
2022/05/27 23:50:59;;;;;;;;;;;11.50;1.00;;;;;;10288873;28;84034;-50
2022/05/27 23:56:04;;;;;;;;;;;11.50;1.00;;;;;;10329826;28;84388;-53
